Terminal Aerodrome Forecast
Issued by NWS Charleston, WV

Current Version | Previous Version | Graphics & Text | Print | Product List | Glossary On
Versions: 1 2 3 4 5 6 7 8 9 10 11 12 13 14 15 16 17 18 19 20 21 22
000
FTUS41 KRLX 110800 AAA
TAFEKN
TAF AMD
KEKN 110845Z 1109/1206 00000KT 1/4SM FG BKN001
     FM111200 00000KT 1 1/2SM BR BKN001
     FM111300 00000KT P6SM SCT250
     FM111500 00000KT P6SM FEW040
     FM120500 00000KT 3SM BR FEW250=

USA.gov is the U.S. government's official web portal to all federal, state and local government web resources and services.